الصفحة الرئيسية
METAR-TAF:

METAR-TAF

مطار :

لوساكا, زامبيا

دائرة عرض: 15-19-51S, خط طول: 028-27-09E, ارتفاع: 1152 متر

مراقبة الطقس الحالي

تاريخ ووقت الإصدار 1ساعة و 43 دقيقة قبل الساعة 13:00UTC
ريح 15 عقدة من الشرق
درجة الحرارة 25°درجة مئوية
الرطوبة 69%
ضغط 1018 hPa
الرؤية 10 كم أو أكثر
غيوم قليلة على ارتفاع 3000 قدم, مزنة ركامية.
غيوم متفرقة على ارتفاع 3500 قدم

METAR: FLKK 141300Z 09015KT 9999 FEW030CB SCT035 25/19 Q1018

زمن: 16:43 (14:43 UTC)


TAF: مفقودة

أرصاد الطقس والتوقعات من أكثر من 4000 مطار (تقارير الطقس للمطار METAR والتنبؤ بالطقس بالمطارTAF).

المحطات المتاحة هي النقط الصفراء والحمراء على الخريطة.

حرك المؤشر فوق النقطة لمعرفة اسم المحطة.

ثم انقر لمعرفة أرصاد وتوقعات الطقس.

لتغيير الخارطة: اضغط على الأزرار الخضراء مع رمز الصليب الأسود للتكبير. على الزر الأخضر مع شرطة للتصغير، أو على الأسهم الخضراء للخرائط المجاورة.


METAR-TAF: